Time;durP1;ratioP1;P1;durP2;ratioP2;P2;SDS_P1;SDS_P2;PMS_P1;PMS_P2;Temp;Humidity;BMP_temperature;BMP_pressure;BME280_temperature;BME280_humidity;BME280_pressure;Samples;Min_cycle;Max_cycle;Signal;HPM_P1;HPM_P2
2023/05/08 00:03:40;;;;;;;13.45;7.25;;;;;;;;;;10066592;23;20031;-87
2023/05/08 00:07:42;;;;;;;17.27;7.82;;;;;;;;;;10091673;23;20380;-88
2023/05/08 00:11:46;;;;;;;18.13;6.80;;;;;;;;;;10091678;23;20019;-88
2023/05/08 00:15:50;;;;;;;13.90;6.85;;;;;;;;;;10091543;23;20028;-88
2023/05/08 00:19:53;;;;;;;16.60;7.70;;;;;;;;;;10091090;23;20022;-88
2023/05/08 00:23:56;;;;;;;15.02;7.35;;;;;;;;;;10090407;23;20435;-88
2023/05/08 00:27:59;;;;;;;15.95;7.20;;;;;;;;;;10089923;23;20074;-89
2023/05/08 00:32:03;;;;;;;17.85;8.75;;;;;;;;;;10064797;23;20026;-89
2023/05/08 00:36:09;;;;;;;21.15;11.20;;;;;;;;;;10106472;23;20022;-88
2023/05/08 00:40:12;;;;;;;26.20;11.75;;;;;;;;;;10091378;23;20023;-89
2023/05/08 00:44:15;;;;;;;22.75;12.10;;;;;;;;;;10090716;23;20018;-87
2023/05/08 00:48:21;;;;;;;24.80;12.60;;;;;;;;;;10090653;23;20089;-87
2023/05/08 00:52:24;;;;;;;26.08;15.02;;;;;;;;;;10098321;23;20030;-87
2023/05/08 00:56:29;;;;;;;27.23;15.93;;;;;;;;;;10090610;23;20022;-88
2023/05/08 01:00:32;;;;;;;28.52;14.65;;;;;;;;;;10106591;23;20022;-87
2023/05/08 01:04:37;;;;;;;29.15;14.60;;;;;;;;;;10090279;23;20030;-88
2023/05/08 01:08:41;;;;;;;34.05;16.70;;;;;;;;;;10090141;23;20077;-88
2023/05/08 01:12:58;;;;;;;32.97;16.95;;;;;;;;;;10090739;23;20453;-88
2023/05/08 01:17:10;;;;;;;30.90;16.40;;;;;;;;;;10106478;23;20022;-88
2023/05/08 01:21:22;;;;;;;27.77;14.60;;;;;;;;;;10106854;23;20033;-88
2023/05/08 01:26:04;;;;;;;33.05;14.88;;;;;;;;;;10107028;23;20049;-88
2023/05/08 01:30:23;;;;;;;33.67;16.40;;;;;;;;;;10104718;23;20022;-88
2023/05/08 01:34:32;;;;;;;32.28;17.33;;;;;;;;;;10104919;23;20055;-87
2023/05/08 01:38:43;;;;;;;30.05;16.67;;;;;;;;;;10103831;23;20026;-87
2023/05/08 01:42:50;;;;;;;30.15;17.50;;;;;;;;;;10105447;23;20100;-88
2023/05/08 01:46:54;;;;;;;28.80;15.48;;;;;;;;;;10106202;23;20019;-88
2023/05/08 01:51:04;;;;;;;30.77;17.00;;;;;;;;;;10089939;23;20454;-88
2023/05/08 01:55:11;;;;;;;34.47;18.05;;;;;;;;;;10106378;23;20068;-88
2023/05/08 01:59:18;;;;;;;35.05;16.67;;;;;;;;;;10105409;23;20435;-88
2023/05/08 02:03:23;;;;;;;31.30;17.23;;;;;;;;;;10105811;23;20359;-88
2023/05/08 02:07:28;;;;;;;30.23;15.90;;;;;;;;;;10088548;23;20446;-88
2023/05/08 02:11:33;;;;;;;30.77;16.52;;;;;;;;;;10104347;23;20027;-87
2023/05/08 02:15:37;;;;;;;27.58;15.40;;;;;;;;;;10090073;23;20402;-88
2023/05/08 02:19:42;;;;;;;30.73;15.23;;;;;;;;;;10088953;23;20097;-89
2023/05/08 02:23:48;;;;;;;31.05;16.15;;;;;;;;;;10090377;23;20502;-88
2023/05/08 02:27:53;;;;;;;31.00;17.00;;;;;;;;;;10105150;23;20098;-86
2023/05/08 02:31:58;;;;;;;29.90;17.02;;;;;;;;;;10091984;23;20018;-88
2023/05/08 02:36:02;;;;;;;28.98;15.52;;;;;;;;;;10092954;23;20455;-87
2023/05/08 02:40:10;;;;;;;29.15;15.70;;;;;;;;;;10093124;23;20041;-89
2023/05/08 02:44:13;;;;;;;31.92;16.40;;;;;;;;;;10108181;23;20066;-90
2023/05/08 02:48:23;;;;;;;31.90;14.60;;;;;;;;;;10092422;23;20151;-87
2023/05/08 02:52:29;;;;;;;76.22;26.95;;;;;;;;;;10066169;23;20486;-88
2023/05/08 02:56:38;;;;;;;211.43;59.47;;;;;;;;;;10108973;23;20093;-88
2023/05/08 03:00:47;;;;;;;161.88;46.75;;;;;;;;;;10108958;23;20022;-86
2023/05/08 03:04:53;;;;;;;201.43;55.83;;;;;;;;;;10109073;23;20022;-89
2023/05/08 03:08:59;;;;;;;223.02;66.10;;;;;;;;;;10106878;23;20093;-87
2023/05/08 03:13:06;;;;;;;234.02;80.32;;;;;;;;;;10108132;23;20023;-88
2023/05/08 03:17:13;;;;;;;247.15;76.20;;;;;;;;;;10108136;23;20030;-87
2023/05/08 03:21:18;;;;;;;180.55;64.28;;;;;;;;;;10066691;23;20050;-87
2023/05/08 03:25:21;;;;;;;151.60;50.75;;;;;;;;;;10108232;23;20101;-89
2023/05/08 03:29:27;;;;;;;122.50;44.28;;;;;;;;;;10092557;23;20022;-88
2023/05/08 03:33:32;;;;;;;114.75;48.85;;;;;;;;;;10108332;23;20097;-88
2023/05/08 03:37:39;;;;;;;86.47;39.75;;;;;;;;;;10108144;23;20030;-87
2023/05/08 03:41:49;;;;;;;78.75;33.47;;;;;;;;;;10107995;23;20041;-88
2023/05/08 03:45:54;;;;;;;63.63;27.73;;;;;;;;;;10066299;23;20082;-88
2023/05/08 03:49:58;;;;;;;67.22;32.25;;;;;;;;;;10108197;23;20025;-88
2023/05/08 03:54:01;;;;;;;61.28;30.20;;;;;;;;;;10091900;23;20101;-89
2023/05/08 03:58:08;;;;;;;60.63;28.25;;;;;;;;;;10091777;23;20343;-88
2023/05/08 04:02:20;;;;;;;73.28;32.85;;;;;;;;;;10107644;23;20029;-87
2023/05/08 04:06:29;;;;;;;77.70;37.47;;;;;;;;;;10107422;23;20018;-89
2023/05/08 04:10:37;;;;;;;79.95;36.90;;;;;;;;;;10107587;23;20745;-88
2023/05/08 04:14:45;;;;;;;82.80;38.92;;;;;;;;;;10091265;23;20093;-89
2023/05/08 04:18:55;;;;;;;71.15;37.30;;;;;;;;;;10063143;23;20050;-91
2023/05/08 04:23:00;;;;;;;64.72;34.08;;;;;;;;;;10107033;23;20065;-88
2023/05/08 04:27:03;;;;;;;54.03;32.75;;;;;;;;;;10107207;23;20097;-89
2023/05/08 04:31:07;;;;;;;30.85;20.67;;;;;;;;;;10091729;23;20028;-88
2023/05/08 04:35:12;;;;;;;27.40;14.93;;;;;;;;;;10091677;23;20041;-89
2023/05/08 04:39:15;;;;;;;15.38;10.45;;;;;;;;;;10091099;23;20026;-89
2023/05/08 04:43:18;;;;;;;16.70;10.43;;;;;;;;;;10064749;23;20023;-90
2023/05/08 04:47:22;;;;;;;15.35;10.63;;;;;;;;;;10091440;23;20026;-88
2023/05/08 04:51:28;;;;;;;39.03;10.45;;;;;;;;;;10064449;23;20029;-90
2023/05/08 04:55:31;;;;;;;15.32;10.23;;;;;;;;;;10065563;23;20029;-89
2023/05/08 04:59:35;;;;;;;14.05;9.75;;;;;;;;;;10091620;23;20077;-89
2023/05/08 05:03:38;;;;;;;14.45;9.90;;;;;;;;;;10091128;23;20029;-90
2023/05/08 05:07:42;;;;;;;11.60;7.53;;;;;;;;;;10090551;23;20026;-89
2023/05/08 05:11:47;;;;;;;12.02;8.48;;;;;;;;;;10091124;23;20446;-90
2023/05/08 05:15:53;;;;;;;12.82;8.50;;;;;;;;;;10069366;23;20050;-90
2023/05/08 05:19:56;;;;;;;10.75;6.88;;;;;;;;;;10108363;23;20067;-89
2023/05/08 05:24:00;;;;;;;9.88;6.43;;;;;;;;;;10136328;23;20026;-90
2023/05/08 05:28:04;;;;;;;7.93;5.32;;;;;;;;;;10115113;23;20019;-92
2023/05/08 05:32:09;;;;;;;8.43;5.20;;;;;;;;;;10110540;23;20029;-91
2023/05/08 05:36:12;;;;;;;11.10;5.53;;;;;;;;;;10115020;23;20023;-91
2023/05/08 05:40:16;;;;;;;8.40;5.45;;;;;;;;;;10097918;23;20094;-92
2023/05/08 05:44:19;;;;;;;10.30;6.13;;;;;;;;;;10090723;23;20110;-90
2023/05/08 05:48:22;;;;;;;7.13;3.97;;;;;;;;;;10090723;23;20045;-91
2023/05/08 05:52:25;;;;;;;5.75;3.80;;;;;;;;;;10086494;23;20026;-91
2023/05/08 05:56:30;;;;;;;4.50;3.25;;;;;;;;;;10086157;23;20421;-91
2023/05/08 06:00:32;;;;;;;5.63;3.60;;;;;;;;;;10088669;23;20478;-89
2023/05/08 06:04:36;;;;;;;6.72;3.60;;;;;;;;;;10091445;23;20018;-90
2023/05/08 06:08:38;;;;;;;11.52;7.38;;;;;;;;;;10092919;23;20083;-90
2023/05/08 06:12:43;;;;;;;6.32;3.72;;;;;;;;;;10093620;23;20022;-90
2023/05/08 06:16:46;;;;;;;5.55;3.28;;;;;;;;;;10092429;23;20025;-90
2023/05/08 06:20:49;;;;;;;5.97;3.42;;;;;;;;;;10092242;23;20049;-89
2023/05/08 06:24:52;;;;;;;6.07;3.17;;;;;;;;;;10093565;23;20018;-89
2023/05/08 06:28:57;;;;;;;5.05;2.63;;;;;;;;;;10089412;23;20057;-89
2023/05/08 06:33:00;;;;;;;4.88;2.92;;;;;;;;;;10089789;23;20374;-90
2023/05/08 06:37:03;;;;;;;4.10;2.80;;;;;;;;;;10089913;23;20040;-88
2023/05/08 06:41:06;;;;;;;4.40;2.60;;;;;;;;;;10088014;23;20026;-89
2023/05/08 06:45:11;;;;;;;5.68;3.70;;;;;;;;;;10087485;23;20365;-90
2023/05/08 06:49:15;;;;;;;3.90;2.20;;;;;;;;;;10087399;23;20033;-89
2023/05/08 06:53:18;;;;;;;3.38;2.33;;;;;;;;;;10087691;23;20060;-89
2023/05/08 06:57:21;;;;;;;5.95;2.28;;;;;;;;;;10087898;23;20022;-88
2023/05/08 07:01:25;;;;;;;4.30;2.33;;;;;;;;;;10087863;23;20125;-89
2023/05/08 07:05:29;;;;;;;5.57;2.28;;;;;;;;;;10087205;23;20109;-89
2023/05/08 07:09:56;;;;;;;4.90;2.58;;;;;;;;;;10086190;23;20029;-90
2023/05/08 07:14:02;;;;;;;2.60;1.98;;;;;;;;;;10085315;23;20029;-90
2023/05/08 07:18:07;;;;;;;6.50;2.47;;;;;;;;;;10086224;23;20098;-89
2023/05/08 07:22:10;;;;;;;5.25;2.20;;;;;;;;;;10086425;23;20130;-89
2023/05/08 07:26:13;;;;;;;3.80;2.40;;;;;;;;;;10086880;23;20026;-89
2023/05/08 07:30:16;;;;;;;13.00;5.13;;;;;;;;;;10059963;23;20033;-90
2023/05/08 07:34:21;;;;;;;4.30;2.75;;;;;;;;;;10084325;23;20088;-89
2023/05/08 07:38:24;;;;;;;4.28;2.80;;;;;;;;;;10087019;23;20130;-89
2023/05/08 07:42:28;;;;;;;5.85;2.45;;;;;;;;;;10087138;23;20092;-88
2023/05/08 07:46:31;;;;;;;5.13;2.92;;;;;;;;;;10086797;23;20019;-92
2023/05/08 07:50:35;;;;;;;5.82;2.72;;;;;;;;;;10087379;23;20022;-89
2023/05/08 07:54:38;;;;;;;5.47;3.22;;;;;;;;;;10102798;23;20473;-89
2023/05/08 07:58:41;;;;;;;5.05;3.33;;;;;;;;;;10086832;23;20363;-89
2023/05/08 08:02:45;;;;;;;4.90;2.63;;;;;;;;;;10086339;23;20030;-91
2023/05/08 08:06:49;;;;;;;5.13;2.63;;;;;;;;;;10086222;23;20097;-89
2023/05/08 08:10:52;;;;;;;5.35;3.30;;;;;;;;;;10087897;23;20033;-88
2023/05/08 08:14:55;;;;;;;6.60;3.80;;;;;;;;;;10086391;23;20406;-89
2023/05/08 08:19:01;;;;;;;4.72;2.78;;;;;;;;;;10086940;23;20683;-89
2023/05/08 08:23:07;;;;;;;5.97;4.60;;;;;;;;;;10088468;23;20026;-88
2023/05/08 08:27:09;;;;;;;5.60;2.83;;;;;;;;;;10101744;23;20034;-88
2023/05/08 08:31:12;;;;;;;4.63;3.50;;;;;;;;;;10085518;23;20441;-89
2023/05/08 08:35:15;;;;;;;6.72;4.28;;;;;;;;;;10060667;23;20022;-90
2023/05/08 08:39:21;;;;;;;5.30;3.70;;;;;;;;;;10085965;23;20097;-88
2023/05/08 08:43:25;;;;;;;13.07;7.10;;;;;;;;;;10101932;23;20026;-88
2023/05/08 08:47:30;;;;;;;4.93;2.72;;;;;;;;;;10086238;23;20018;-88
2023/05/08 08:51:37;;;;;;;7.13;2.53;;;;;;;;;;10085045;23;20101;-89
2023/05/08 08:55:48;;;;;;;7.95;2.50;;;;;;;;;;10085408;23;20022;-87
2023/05/08 08:59:53;;;;;;;3.53;2.70;;;;;;;;;;10085438;23;20598;-88
2023/05/08 09:04:01;;;;;;;4.90;3.10;;;;;;;;;;10101396;23;20019;-89
2023/05/08 09:08:40;;;;;;;5.85;2.80;;;;;;;;;;10084920;23;20018;-88
2023/05/08 09:13:22;;;;;;;7.60;2.85;;;;;;;;;;10100986;23;20022;-87
2023/05/08 09:17:49;;;;;;;6.40;3.35;;;;;;;;;;10084257;23;20115;-89
2023/05/08 09:26:57;;;;;;;3.92;2.30;;;;;;;;;;10082775;23;20351;-88
2023/05/08 09:32:09;;;;;;;5.03;2.50;;;;;;;;;;10082758;23;20022;-89
2023/05/08 09:37:01;;;;;;;9.05;5.45;;;;;;;;;;10084162;23;20518;-89
2023/05/08 09:41:52;;;;;;;32.38;13.32;;;;;;;;;;10106097;23;20105;-90
2023/05/08 09:46:38;;;;;;;49.00;24.00;;;;;;;;;;10090296;23;20480;-88
2023/05/08 09:51:12;;;;;;;3.30;2.20;;;;;;;;;;10089400;23;20124;-88
2023/05/08 09:56:05;;;;;;;5.95;2.85;;;;;;;;;;10088981;23;20198;-88
2023/05/08 10:01:00;;;;;;;3.53;2.35;;;;;;;;;;10086553;23;20023;-88
2023/05/08 10:05:40;;;;;;;6.50;2.97;;;;;;;;;;10089458;23;20066;-88
2023/05/08 10:10:03;;;;;;;8.85;5.00;;;;;;;;;;10088771;23;20018;-88
2023/05/08 10:14:58;;;;;;;4.05;2.40;;;;;;;;;;10105886;23;20018;-87
2023/05/08 10:19:21;;;;;;;8.10;4.72;;;;;;;;;;10107083;23;20054;-89
2023/05/08 10:23:46;;;;;;;4.63;3.03;;;;;;;;;;10089949;23;20030;-88
2023/05/08 10:28:32;;;;;;;7.85;3.95;;;;;;;;;;10090293;23;20014;-89
2023/05/08 10:33:17;;;;;;;6.07;3.38;;;;;;;;;;10090440;23;20335;-88
2023/05/08 10:37:47;;;;;;;5.55;2.58;;;;;;;;;;10080515;23;20124;-88
2023/05/08 10:41:51;;;;;;;5.72;2.83;;;;;;;;;;10090000;23;20407;-88
2023/05/08 10:45:55;;;;;;;4.30;2.50;;;;;;;;;;10064216;23;20097;-88
2023/05/08 10:50:07;;;;;;;4.65;2.60;;;;;;;;;;10104243;23;20501;-88
2023/05/08 10:54:20;;;;;;;5.35;2.67;;;;;;;;;;10088480;23;20117;-87
2023/05/08 10:58:59;;;;;;;7.85;3.75;;;;;;;;;;10103067;23;20038;-87
2023/05/08 11:03:12;;;;;;;4.53;2.45;;;;;;;;;;10103530;23;20464;-88
2023/05/08 11:07:16;;;;;;;3.25;2.45;;;;;;;;;;10103574;23;20033;-88
2023/05/08 11:11:37;;;;;;;10.23;4.45;;;;;;;;;;10086347;23;20026;-88
2023/05/08 11:15:56;;;;;;;6.05;3.40;;;;;;;;;;10061304;23;20023;-88
2023/05/08 11:20:04;;;;;;;3.25;2.20;;;;;;;;;;10103584;23;20030;-88
2023/05/08 11:24:42;;;;;;;5.40;2.17;;;;;;;;;;10102661;23;20090;-88
2023/05/08 11:29:37;;;;;;;3.38;2.38;;;;;;;;;;10081166;23;20735;-88
2023/05/08 11:33:50;;;;;;;5.45;2.42;;;;;;;;;;10085485;23;20029;-88
2023/05/08 11:38:30;;;;;;;4.32;2.33;;;;;;;;;;10101741;23;20014;-88
2023/05/08 11:43:22;;;;;;;3.13;2.00;;;;;;;;;;10066605;23;20023;-88
2023/05/08 11:48:08;;;;;;;3.13;2.20;;;;;;;;;;10086491;23;20403;-88
2023/05/08 11:53:21;;;;;;;5.85;2.60;;;;;;;;;;10086140;23;20037;-88
2023/05/08 11:57:27;;;;;;;4.28;2.20;;;;;;;;;;10102510;23;20505;-88
2023/05/08 12:01:34;;;;;;;3.75;2.30;;;;;;;;;;10088645;23;20083;-93
2023/05/08 12:05:38;;;;;;;4.35;2.60;;;;;;;;;;10070183;23;20065;-91
2023/05/08 12:09:56;;;;;;;19.98;11.30;;;;;;;;;;10094306;23;20218;-94
2023/05/08 12:19:21;;;;;;;6.75;3.10;;;;;;;;;;10090096;23;20031;-92
2023/05/08 12:24:10;;;;;;;3.90;2.30;;;;;;;;;;10091540;23;20018;-93
2023/05/08 12:28:33;;;;;;;4.38;3.13;;;;;;;;;;10021650;23;20043;-93
2023/05/08 12:32:39;;;;;;;2.95;2.10;;;;;;;;;;10045564;23;20033;-93
2023/05/08 12:36:43;;;;;;;4.40;2.97;;;;;;;;;;10062526;23;20034;-94
2023/05/08 12:45:41;;;;;;;6.80;3.13;;;;;;;;;;10046835;23;20114;-91
2023/05/08 12:49:49;;;;;;;5.93;2.33;;;;;;;;;;10061038;23;20026;-91
2023/05/08 12:53:59;;;;;;;3.25;2.22;;;;;;;;;;10024462;23;20023;-92
2023/05/08 12:58:05;;;;;;;4.93;2.53;;;;;;;;;;10064873;23;20045;-92
2023/05/08 13:02:20;;;;;;;5.35;2.30;;;;;;;;;;10024513;23;20038;-93
2023/05/08 13:06:24;;;;;;;3.25;2.10;;;;;;;;;;10021145;23;20348;-93
2023/05/08 13:10:51;;;;;;;5.18;2.97;;;;;;;;;;10022135;23;20022;-93
2023/05/08 13:14:58;;;;;;;3.03;2.47;;;;;;;;;;10063356;23;20029;-95
2023/05/08 13:19:05;;;;;;;5.05;3.33;;;;;;;;;;10022165;23;20653;-93
2023/05/08 13:23:11;;;;;;;3.83;2.50;;;;;;;;;;10062662;23;20026;-91
2023/05/08 13:27:19;;;;;;;4.95;2.45;;;;;;;;;;10062799;23;20019;-91
2023/05/08 13:31:23;;;;;;;4.50;3.00;;;;;;;;;;10046144;23;20019;-92
2023/05/08 13:35:30;;;;;;;4.47;2.40;;;;;;;;;;10047767;23;20043;-94
2023/05/08 13:39:36;;;;;;;3.65;2.53;;;;;;;;;;10064934;23;20018;-93
2023/05/08 13:43:41;;;;;;;4.72;2.60;;;;;;;;;;10065371;23;20102;-94
2023/05/08 13:47:47;;;;;;;4.30;2.67;;;;;;;;;;10022500;23;20351;-93
2023/05/08 13:51:52;;;;;;;5.03;3.22;;;;;;;;;;10047863;23;20022;-93
2023/05/08 13:55:58;;;;;;;4.15;2.60;;;;;;;;;;10065726;23;20049;-94
2023/05/08 14:00:03;;;;;;;6.28;2.92;;;;;;;;;;10046422;23;20101;-93
2023/05/08 14:04:09;;;;;;;5.63;3.00;;;;;;;;;;10046073;23;20063;-92
2023/05/08 14:08:15;;;;;;;4.10;2.17;;;;;;;;;;10062079;23;20447;-91
2023/05/08 14:12:19;;;;;;;2.67;1.90;;;;;;;;;;10062820;23;20019;-93
2023/05/08 14:16:24;;;;;;;8.93;3.97;;;;;;;;;;10046729;23;20045;-93
2023/05/08 14:20:31;;;;;;;4.28;2.88;;;;;;;;;;10046812;23;20019;-92
2023/05/08 14:24:40;;;;;;;30.08;10.50;;;;;;;;;;10061998;23;20474;-92
2023/05/08 14:28:44;;;;;;;4.28;2.20;;;;;;;;;;10064679;23;20015;-92
2023/05/08 14:32:48;;;;;;;7.13;3.70;;;;;;;;;;10023374;23;20030;-91
2023/05/08 14:36:53;;;;;;;12.80;6.43;;;;;;;;;;10047275;23;20102;-92
2023/05/08 14:40:59;;;;;;;5.85;3.25;;;;;;;;;;10046768;23;20019;-92
2023/05/08 14:45:03;;;;;;;8.82;3.95;;;;;;;;;;10062267;23;20452;-93
2023/05/08 14:49:07;;;;;;;6.03;2.55;;;;;;;;;;10020662;23;20023;-92
2023/05/08 14:53:11;;;;;;;8.02;3.55;;;;;;;;;;10047128;23;20053;-92
2023/05/08 14:57:22;;;;;;;5.15;2.83;;;;;;;;;;10047058;23;20026;-92
2023/05/08 15:01:27;;;;;;;6.63;3.58;;;;;;;;;;10022436;23;20418;-94
2023/05/08 15:05:34;;;;;;;14.63;6.53;;;;;;;;;;10022846;23;20033;-93
2023/05/08 15:09:42;;;;;;;4.70;2.60;;;;;;;;;;10021393;23;20542;-92
2023/05/08 15:13:57;;;;;;;6.25;3.13;;;;;;;;;;10062256;23;20030;-93
2023/05/08 15:18:04;;;;;;;7.88;4.00;;;;;;;;;;10021582;23;20027;-92
2023/05/08 15:22:08;;;;;;;4.50;2.28;;;;;;;;;;10047466;23;20090;-92
2023/05/08 15:26:13;;;;;;;2.10;1.75;;;;;;;;;;10047320;23;20023;-93
2023/05/08 15:30:18;;;;;;;3.53;2.50;;;;;;;;;;10021978;23;20022;-93
2023/05/08 15:34:24;;;;;;;6.28;3.55;;;;;;;;;;10061898;23;20069;-94
2023/05/08 15:38:29;;;;;;;20.15;11.98;;;;;;;;;;10029972;23;20026;-92
2023/05/08 15:42:34;;;;;;;9.75;5.15;;;;;;;;;;10066450;23;20126;-93
2023/05/08 15:46:40;;;;;;;13.50;9.85;;;;;;;;;;10084053;23;20029;-90
2023/05/08 15:50:48;;;;;;;5.45;3.70;;;;;;;;;;10100422;23;20089;-92
2023/05/08 15:54:53;;;;;;;5.05;2.25;;;;;;;;;;10049377;23;20030;-91
2023/05/08 15:58:57;;;;;;;5.55;3.05;;;;;;;;;;10046126;23;20023;-91
2023/05/08 16:03:04;;;;;;;3.47;2.33;;;;;;;;;;10044767;23;20131;-90
2023/05/08 16:07:08;;;;;;;42.30;23.75;;;;;;;;;;10019769;23;20033;-91
2023/05/08 16:11:12;;;;;;;77.57;40.60;;;;;;;;;;10020510;23;20086;-90
2023/05/08 16:15:16;;;;;;;26.52;13.55;;;;;;;;;;10046236;23;20018;-91
2023/05/08 16:19:26;;;;;;;4.90;2.67;;;;;;;;;;10046351;23;20019;-91
2023/05/08 16:23:32;;;;;;;9.75;4.18;;;;;;;;;;10019657;23;20022;-91
2023/05/08 16:27:37;;;;;;;10.63;4.68;;;;;;;;;;10061034;23;20019;-91
2023/05/08 16:31:55;;;;;;;5.85;3.83;;;;;;;;;;10045990;23;20026;-90
2023/05/08 16:36:03;;;;;;;20.98;10.90;;;;;;;;;;10044091;23;20026;-91
2023/05/08 16:40:09;;;;;;;70.28;39.83;;;;;;;;;;10017988;23;20042;-90
2023/05/08 16:44:13;;;;;;;7.95;3.72;;;;;;;;;;10060296;23;20026;-92
2023/05/08 16:48:21;;;;;;;10.30;5.40;;;;;;;;;;10060669;23;20074;-91
2023/05/08 16:52:31;;;;;;;72.53;30.38;;;;;;;;;;10018641;23;20033;-94
2023/05/08 16:56:36;;;;;;;29.13;15.25;;;;;;;;;;10019839;23;20019;-93
2023/05/08 17:00:41;;;;;;;80.15;31.10;;;;;;;;;;10044172;23;20062;-93
2023/05/08 17:05:19;;;;;;;14.10;7.05;;;;;;;;;;10036999;23;20046;-91
2023/05/08 17:09:25;;;;;;;33.70;12.65;;;;;;;;;;10059693;23;20015;-92
2023/05/08 17:13:30;;;;;;;39.65;17.65;;;;;;;;;;10059422;23;20023;-92
2023/05/08 17:17:35;;;;;;;27.00;14.40;;;;;;;;;;10043422;23;20034;-92
2023/05/08 17:21:38;;;;;;;60.83;28.77;;;;;;;;;;10043238;23;20022;-93
2023/05/08 17:25:45;;;;;;;67.90;22.75;;;;;;;;;;10043384;23;20535;-92
2023/05/08 17:29:51;;;;;;;26.85;11.48;;;;;;;;;;10043447;23;20079;-92
2023/05/08 17:33:54;;;;;;;29.95;11.32;;;;;;;;;;10043715;23;20447;-92
2023/05/08 17:37:57;;;;;;;11.70;5.57;;;;;;;;;;10043794;23;20023;-92
2023/05/08 17:42:04;;;;;;;10.85;4.55;;;;;;;;;;10044151;23;20019;-91
2023/05/08 17:46:08;;;;;;;41.72;17.48;;;;;;;;;;10059837;23;20078;-92
2023/05/08 17:50:11;;;;;;;14.18;7.00;;;;;;;;;;10043967;23;20022;-91
2023/05/08 17:54:14;;;;;;;5.63;3.13;;;;;;;;;;10043295;23;20474;-91
2023/05/08 17:58:19;;;;;;;27.08;11.43;;;;;;;;;;10045597;23;20047;-92
2023/05/08 18:02:22;;;;;;;5.05;2.80;;;;;;;;;;10046430;23;20018;-91
2023/05/08 18:06:25;;;;;;;10.32;4.57;;;;;;;;;;10091978;23;20022;-92
2023/05/08 18:10:27;;;;;;;7.05;3.95;;;;;;;;;;10069271;23;20031;-91
2023/05/08 18:14:32;;;;;;;7.40;3.92;;;;;;;;;;10099577;23;20331;-91
2023/05/08 18:18:35;;;;;;;6.95;5.05;;;;;;;;;;10096222;23;20448;-91
2023/05/08 18:22:48;;;;;;;12.10;6.90;;;;;;;;;;10095583;23;20359;-91
2023/05/08 18:26:51;;;;;;;;;;;;;;;;;;10095294;23;20022;-91
2023/05/08 18:30:55;;;;;;;15.73;6.45;;;;;;;;;;10094959;23;20592;-91
2023/05/08 18:34:59;;;;;;;7.53;5.15;;;;;;;;;;10090967;23;20022;-91
2023/05/08 18:39:02;;;;;;;7.78;4.95;;;;;;;;;;10079137;23;20051;-91
2023/05/08 18:43:09;;;;;;;9.00;6.20;;;;;;;;;;10046559;23;20075;-91
2023/05/08 18:47:13;;;;;;;10.02;4.65;;;;;;;;;;10046858;23;20053;-92
2023/05/08 18:51:17;;;;;;;16.45;8.75;;;;;;;;;;10047144;23;20030;-91
2023/05/08 18:55:20;;;;;;;12.35;7.72;;;;;;;;;;10047504;23;20038;-91
2023/05/08 18:59:24;;;;;;;13.65;7.40;;;;;;;;;;10047861;23;20093;-91
2023/05/08 19:03:29;;;;;;;22.35;11.10;;;;;;;;;;10046144;23;20019;-91
2023/05/08 19:07:38;;;;;;;17.05;9.93;;;;;;;;;;10047475;23;20030;-91
2023/05/08 19:11:42;;;;;;;15.38;7.32;;;;;;;;;;10045379;23;20482;-90
2023/05/08 19:15:45;;;;;;;147.02;52.92;;;;;;;;;;10045892;23;20027;-91
2023/05/08 19:20:03;;;;;;;12.00;6.97;;;;;;;;;;10042263;23;20043;-90
2023/05/08 19:24:11;;;;;;;9.52;6.30;;;;;;;;;;10047785;23;20019;-91
2023/05/08 19:28:16;;;;;;;11.75;5.50;;;;;;;;;;10065611;23;20098;-91
2023/05/08 19:32:19;;;;;;;9.10;5.53;;;;;;;;;;10055546;23;20023;-92
2023/05/08 19:36:24;;;;;;;10.38;7.00;;;;;;;;;;10050473;23;20044;-92
2023/05/08 19:40:26;;;;;;;14.90;7.60;;;;;;;;;;10020848;23;20392;-93
2023/05/08 19:44:35;;;;;;;21.85;12.60;;;;;;;;;;10044844;23;20023;-92
2023/05/08 19:48:41;;;;;;;44.72;19.92;;;;;;;;;;10045354;23;20049;-92
2023/05/08 19:52:47;;;;;;;55.33;25.63;;;;;;;;;;10044809;23;20023;-93
2023/05/08 19:56:50;;;;;;;65.72;26.35;;;;;;;;;;10019845;23;20027;-93
2023/05/08 20:00:53;;;;;;;19.70;9.10;;;;;;;;;;10045188;23;20023;-91
2023/05/08 20:04:59;;;;;;;17.20;9.57;;;;;;;;;;10045395;23;20019;-91
2023/05/08 20:09:04;;;;;;;16.52;9.50;;;;;;;;;;10019841;23;20027;-91
2023/05/08 20:13:06;;;;;;;15.73;8.43;;;;;;;;;;10044568;23;20026;-92
2023/05/08 20:17:09;;;;;;;14.90;9.48;;;;;;;;;;10045377;23;20428;-89
2023/05/08 20:21:13;;;;;;;15.18;8.90;;;;;;;;;;10048938;23;20080;-92
2023/05/08 20:25:17;;;;;;;14.50;9.60;;;;;;;;;;10051852;23;20078;-92
2023/05/08 20:29:22;;;;;;;16.58;9.00;;;;;;;;;;10076519;23;20030;-91
2023/05/08 20:33:24;;;;;;;15.32;8.70;;;;;;;;;;10072737;23;20042;-91
2023/05/08 20:37:28;;;;;;;22.75;11.05;;;;;;;;;;10047088;23;20022;-92
2023/05/08 20:41:33;;;;;;;19.90;11.27;;;;;;;;;;10045285;23;20467;-91
2023/05/08 20:45:36;;;;;;;14.65;10.23;;;;;;;;;;10044825;23;20085;-91
2023/05/08 20:49:39;;;;;;;14.57;9.85;;;;;;;;;;10044956;23;20018;-91
2023/05/08 20:53:42;;;;;;;15.57;9.73;;;;;;;;;;10043912;23;20022;-92
2023/05/08 20:57:46;;;;;;;18.33;10.68;;;;;;;;;;10044690;23;20027;-91
2023/05/08 21:01:49;;;;;;;17.90;10.88;;;;;;;;;;10044295;23;20018;-91
2023/05/08 21:05:52;;;;;;;19.80;12.55;;;;;;;;;;10044409;23;20050;-91
2023/05/08 21:09:55;;;;;;;21.52;12.80;;;;;;;;;;10044397;23;20094;-91
2023/05/08 21:13:59;;;;;;;19.10;12.20;;;;;;;;;;10044277;23;20029;-93
2023/05/08 21:18:02;;;;;;;15.80;10.65;;;;;;;;;;10043982;23;20077;-91
2023/05/08 21:22:06;;;;;;;18.98;10.82;;;;;;;;;;10044107;23;20070;-92
2023/05/08 21:26:09;;;;;;;16.67;11.18;;;;;;;;;;10044151;23;20515;-91
2023/05/08 21:30:15;;;;;;;22.90;13.38;;;;;;;;;;10043981;23;20098;-90
2023/05/08 21:34:20;;;;;;;23.10;13.05;;;;;;;;;;10059703;23;20457;-91
2023/05/08 21:38:23;;;;;;;24.27;13.52;;;;;;;;;;10044173;23;20396;-91
2023/05/08 21:42:26;;;;;;;23.42;13.77;;;;;;;;;;10043903;23;20145;-91
2023/05/08 21:46:30;;;;;;;28.05;15.02;;;;;;;;;;10043900;23;20054;-91
2023/05/08 21:50:36;;;;;;;24.23;14.40;;;;;;;;;;10043690;23;20451;-90
2023/05/08 21:54:39;;;;;;;21.92;15.82;;;;;;;;;;10043575;23;20121;-91
2023/05/08 21:58:42;;;;;;;20.73;12.05;;;;;;;;;;10043713;23;20443;-90
2023/05/08 22:02:49;;;;;;;24.95;16.75;;;;;;;;;;10018754;23;20098;-91
2023/05/08 22:06:52;;;;;;;25.38;16.58;;;;;;;;;;10018655;23;20455;-91
2023/05/08 22:10:55;;;;;;;30.63;19.13;;;;;;;;;;10042933;23;20015;-92
2023/05/08 22:15:01;;;;;;;30.60;16.00;;;;;;;;;;10043951;23;20027;-90
2023/05/08 22:19:05;;;;;;;28.38;15.68;;;;;;;;;;10059508;23;20335;-90
2023/05/08 22:23:08;;;;;;;34.17;17.83;;;;;;;;;;10043228;23;20018;-91
2023/05/08 22:27:11;;;;;;;33.60;17.63;;;;;;;;;;10043714;23;20402;-90
2023/05/08 22:31:15;;;;;;;33.60;19.52;;;;;;;;;;10018386;23;20515;-90
2023/05/08 22:35:20;;;;;;;34.78;18.58;;;;;;;;;;10043622;23;20050;-90
2023/05/08 22:39:23;;;;;;;33.75;18.83;;;;;;;;;;10055612;23;20533;-91
2023/05/08 22:43:29;;;;;;;34.85;19.10;;;;;;;;;;10043566;23;20019;-91
2023/05/08 22:47:34;;;;;;;30.92;17.50;;;;;;;;;;10060977;23;20447;-91
2023/05/08 22:51:38;;;;;;;37.13;19.98;;;;;;;;;;10045898;23;20053;-91
2023/05/08 22:55:41;;;;;;;37.42;20.00;;;;;;;;;;10046019;23;20454;-91
2023/05/08 22:59:44;;;;;;;39.88;21.20;;;;;;;;;;10046379;23;20097;-92
2023/05/08 23:03:47;;;;;;;41.75;21.58;;;;;;;;;;10046081;23;20019;-92
2023/05/08 23:07:51;;;;;;;38.35;20.75;;;;;;;;;;10046152;23;20443;-91
2023/05/08 23:11:54;;;;;;;37.10;19.08;;;;;;;;;;10045775;23;20034;-91
2023/05/08 23:15:57;;;;;;;38.25;19.55;;;;;;;;;;10020548;23;20089;-91
2023/05/08 23:20:00;;;;;;;34.72;19.67;;;;;;;;;;10021147;23;20019;-90
2023/05/08 23:24:05;;;;;;;33.78;18.90;;;;;;;;;;10045707;23;20019;-91
2023/05/08 23:28:08;;;;;;;38.67;20.42;;;;;;;;;;10045547;23;20459;-91
2023/05/08 23:32:11;;;;;;;42.58;22.08;;;;;;;;;;10045326;23;20114;-92
2023/05/08 23:36:15;;;;;;;47.03;25.00;;;;;;;;;;10020262;23;20027;-91
2023/05/08 23:40:22;;;;;;;43.90;21.65;;;;;;;;;;10044936;23;20522;-90
2023/05/08 23:44:25;;;;;;;40.90;21.33;;;;;;;;;;10060818;23;20022;-90
2023/05/08 23:48:29;;;;;;;46.35;24.10;;;;;;;;;;10045049;23;20066;-90
2023/05/08 23:52:31;;;;;;;53.25;24.80;;;;;;;;;;10044874;23;20030;-90
2023/05/08 23:56:37;;;;;;;42.85;21.98;;;;;;;;;;10044871;23;20021;-90
